Chautauqua County-Jamestown Airport
KJHW : rendu visible

Aérodrome :











RETROUVEZ-NOUS SUR...

 
LOGIN :

S'inscrire | Disclaimer

   EN    FR    IT 

 









Légende :    VFR   VFR Marginal   IFR   IFR Intensif   IFR Très Intensif
Visi : 
Plafond : 
>= 8 km
>= 3000ft
5 à 8 km
1000 à 3000 ft
1500m à 5 km
500 à 1000 ft
800 à 1500m
200 à 500 ft
< 800m
< 200 ft
Symboles :   Orages  Brouillard  Fortes neiges  Fortes précipitations  Vent > 20 kt






- Altitude de l'aérodrome : 1723 ft


KJHW - Chautauqua County-Jamestown

DERNIER METAR :
  • 190508Z AUTO 24016G21KT 5SM -SN BR OVC013 M01/M02 A2961 RMK AO2 P0000 FZRANO

METARs EXPIRÉS :
  • 190456Z AUTO 24019G25KT 5SM -SN BR OVC015 M01/M02 A2961 RMK AO2 SLP051 P0000 T10061017 400331089 FZRANO
  • 190356Z AUTO 24018G22KT 9SM -SN OVC015 00/M02 A2961 RMK AO2 PK WND 26027/0258 SLP051 P0000 T00001017 FZRANO
  • 190316Z AUTO 25015G23KT 4SM -SN BR SCT008 BKN015 OVC026 00/M01 A2961 RMK AO2 PK WND 26027/0258 P0000 FZRANO
  • 190256Z AUTO 26021G31KT 2 1/2SM -SN BR BKN013 OVC021 01/M01 A2961 RMK AO2 PK WND 25032/0204 RAB10E13B44E46SNB13 SLP050 P0000 60002 T00061011 50012 FZRANO

TAF KJHW
Valide du 19 à 03h jusqu'au 20 à 00h UTC


190329Z 1903/1924 26021G31KT 3SM -SN BR OVC015
FM190500 26023G34KT 1SM -SN BR OVC015
FM191500 28019G31KT 1/4SM +SN BLSN OVC015
FM192300 30015G24KT 1/2SM SN BLSN OVC012



MET'MAP, la Météo Aéronautique d'un coup d'oeil ! - Copyright ORBIFLY Décembre 2007 - Disclaimer

ORBIFLY MET'MAP TEAM :

Programmation & Développement : Alexandra Zaïnal
Sur une idée originale de : Baudouin d'Aumeries
Assistance à la programmation : Marc-Olivier Méhu
Soutien technique & logistique : Manuel Goepfert

Contact : metmap@orbifly.com




SOURCES & CREDITS :

   NOAA       Earth
Advisory